Decoded Metar for LYBE (BEOGRAD in SERBIA) (IATA:BEG) | Meteo·Mobile Aviation Weather
aviador You're here:

LYBE Decoded Metar

BEOGRAD in SERBIA
Report Time2018-09-19 16:00:00
UTC Time2018-09-19 16:22:03
Flight Rules vfr VFR
Wind120° at 08 kt
W.Decomp.*RWY 12: 8.0 kt HW 0.4 kt LCW
W.Rank120° ranks 4
Current wind is above 120° avg. (7.9)
Visibility9999 m
Phenomena:N/A
Clouds:N/A
Expected CloudBase > 6,400 ft AGL from Temp-Dew spread
CeilingNone
Temp28°C (ISA +14)
Dew Point12°C (37% RH)
Heat Index27.5°C
AAT25.7°C
QNH1019 hPa
Density Alt1,883 ft
Elevation325 ft
Report Wrong Elevation
Raw Report
LYBE 191600Z 12008KT CAVOK 28/12 Q1019 NOSIG=

Extra information for LYBE:More info

Metar Taf Metar & Taf Last 4 Metars F.Rules Stats Wind Profile Meteogram Temp Stats Airport Information Weather charts Add Link Nearby VenuesMetar ALERT Operation Metar Decoded Social comments